Time;durP1;ratioP1;P1;durP2;ratioP2;P2;SDS_P1;SDS_P2;PMS_P1;PMS_P2;Temp;Humidity;BMP_temperature;BMP_pressure;BME280_temperature;BME280_humidity;BME280_pressure;Samples;Min_cycle;Max_cycle;Signal;HPM_P1;HPM_P2
2021/03/08 00:02:37;;;;;;;17.27;11.03;;;;;3.50;101782.00;;;;10523019;28;20209;-75
2021/03/08 00:07:39;;;;;;;17.40;11.47;;;;;3.40;101778.00;;;;10474528;28;20255;-75
2021/03/08 00:12:45;;;;;;;17.70;11.43;;;;;3.40;101772.00;;;;10504030;28;20263;-75
2021/03/08 00:17:47;;;;;;;16.87;11.43;;;;;3.40;101771.00;;;;10505916;28;20209;-75
2021/03/08 00:22:49;;;;;;;20.07;12.17;;;;;3.40;101780.00;;;;10539020;28;20246;-74
2021/03/08 00:27:50;;;;;;;18.83;12.00;;;;;3.30;101784.00;;;;10539343;28;20193;-74
2021/03/08 00:32:52;;;;;;;17.77;11.77;;;;;3.30;101777.00;;;;10488473;28;20213;-75
2021/03/08 00:37:54;;;;;;;18.20;12.13;;;;;3.20;101780.00;;;;10505152;28;20300;-74
2021/03/08 00:42:55;;;;;;;17.47;11.87;;;;;3.10;101781.00;;;;10487484;28;20223;-74
2021/03/08 00:47:56;;;;;;;20.33;12.23;;;;;3.00;101779.00;;;;10521679;28;20219;-74
2021/03/08 00:52:59;;;;;;;22.50;13.27;;;;;2.80;101768.00;;;;10504796;28;20197;-74
2021/03/08 00:58:08;;;;;;;19.73;12.77;;;;;2.70;101770.00;;;;10462985;28;20611;-74
2021/03/08 01:03:09;;;;;;;19.67;11.70;;;;;2.70;101766.00;;;;10505728;28;20196;-74
2021/03/08 01:08:15;;;;;;;19.70;12.33;;;;;2.60;101778.00;;;;10503828;28;20593;-74
2021/03/08 01:13:19;;;;;;;21.37;12.80;;;;;2.60;101777.00;;;;10521335;28;20208;-74
2021/03/08 01:18:25;;;;;;;20.83;12.73;;;;;2.50;101769.00;;;;10463566;28;20537;-74
2021/03/08 01:23:27;;;;;;;18.57;12.30;;;;;2.50;101769.00;;;;10474385;28;20197;-74
2021/03/08 01:28:28;;;;;;;20.33;11.13;;;;;2.50;101765.00;;;;10520017;28;20197;-74
2021/03/08 01:33:30;;;;;;;20.63;12.20;;;;;2.50;101773.00;;;;10521076;28;20191;-74
2021/03/08 01:38:32;;;;;;;19.47;12.57;;;;;2.40;101766.00;;;;10503962;28;20249;-74
2021/03/08 01:43:33;;;;;;;20.00;13.10;;;;;2.40;101765.00;;;;10520062;28;20730;-74
2021/03/08 01:48:35;;;;;;;21.13;13.43;;;;;2.30;101753.00;;;;10460470;28;20645;-74
2021/03/08 01:53:36;;;;;;;22.50;13.57;;;;;2.20;101758.00;;;;10526257;28;20831;-74
2021/03/08 01:58:39;;;;;;;20.80;12.63;;;;;2.00;101755.00;;;;10511648;28;20212;-74
2021/03/08 02:03:41;;;;;;;25.30;15.00;;;;;1.80;101755.00;;;;10511273;28;20254;-74
2021/03/08 02:08:42;;;;;;;25.90;14.27;;;;;1.60;101751.00;;;;10528556;28;20283;-74
2021/03/08 02:13:59;;;;;;;21.07;13.47;;;;;1.50;101755.00;;;;10558529;28;20255;-74
2021/03/08 02:19:39;;;;;;;24.07;13.80;;;;;1.30;101755.00;;;;10496516;28;20215;-74
2021/03/08 02:24:50;;;;;;;27.00;14.50;;;;;1.20;101749.00;;;;10510044;28;20197;-74
2021/03/08 02:30:10;;;;;;;28.97;14.13;;;;;1.20;101743.00;;;;10526836;28;20660;-74
2021/03/08 02:35:19;;;;;;;27.00;14.63;;;;;1.00;101737.00;;;;10526515;28;20243;-74
2021/03/08 02:40:25;;;;;;;24.43;14.13;;;;;0.90;101742.00;;;;10543777;28;20296;-74
2021/03/08 02:45:29;;;;;;;24.80;14.60;;;;;0.70;101729.00;;;;10509138;28;20189;-74
2021/03/08 02:50:34;;;;;;;31.63;15.43;;;;;0.60;101730.00;;;;10544409;28;20189;-74
2021/03/08 02:55:55;;;;;;;25.47;14.97;;;;;0.40;101732.00;;;;10525273;28;20292;-74
2021/03/08 03:00:58;;;;;;;30.47;15.47;;;;;0.30;101733.00;;;;10509510;28;20204;-74
2021/03/08 03:06:03;;;;;;;30.20;15.93;;;;;0.20;101732.00;;;;10531825;28;20576;-76
2021/03/08 03:11:07;;;;;;;27.17;15.10;;;;;0.10;101732.00;;;;10531581;28;20266;-74
2021/03/08 03:16:10;;;;;;;24.30;13.40;;;;;0.00;101751.00;;;;10508324;28;20205;-74
2021/03/08 03:21:12;;;;;;;24.23;14.97;;;;;0.10;101741.00;;;;10524952;28;20709;-74
2021/03/08 03:26:15;;;;;;;25.93;15.20;;;;;0.30;101729.00;;;;10524850;28;20239;-74
2021/03/08 03:31:18;;;;;;;27.97;15.10;;;;;0.40;101730.00;;;;10507476;28;20716;-74
2021/03/08 03:36:21;;;;;;;25.27;15.07;;;;;0.50;101733.00;;;;10490918;28;20216;-74
2021/03/08 03:41:23;;;;;;;25.87;15.33;;;;;0.60;101729.00;;;;10508015;28;20382;-74
2021/03/08 03:46:24;;;;;;;24.63;14.93;;;;;0.60;101738.00;;;;10506959;28;20747;-74
2021/03/08 03:51:26;;;;;;;28.47;16.80;;;;;0.70;101739.00;;;;10490834;28;20250;-74
2021/03/08 03:56:31;;;;;;;29.87;16.07;;;;;0.70;101754.00;;;;10506680;28;20288;-74
2021/03/08 04:01:39;;;;;;;32.13;15.83;;;;;0.70;101757.00;;;;10540233;28;20197;-74
2021/03/08 04:06:44;;;;;;;27.83;15.00;;;;;0.60;101762.00;;;;10511312;28;20542;-74
2021/03/08 04:11:48;;;;;;;29.70;16.07;;;;;0.60;101766.00;;;;10522384;28;20236;-74
2021/03/08 04:16:52;;;;;;;30.50;17.27;;;;;0.70;101772.00;;;;10505634;28;20255;-74
2021/03/08 04:21:59;;;;;;;31.60;16.97;;;;;0.70;101760.00;;;;10540840;28;20640;-74
2021/03/08 04:27:06;;;;;;;31.57;16.30;;;;;0.60;101768.00;;;;10488859;28;20556;-74
2021/03/08 04:32:09;;;;;;;30.73;16.23;;;;;0.70;101767.00;;;;10505892;28;20250;-74
2021/03/08 04:37:16;;;;;;;29.40;15.33;;;;;0.60;101763.00;;;;10526708;28;20205;-74
2021/03/08 04:42:19;;;;;;;31.57;17.17;;;;;0.60;101761.00;;;;10505520;28;20291;-74
2021/03/08 04:47:21;;;;;;;27.50;16.97;;;;;0.60;101774.00;;;;10480612;28;20240;-74
2021/03/08 04:52:24;;;;;;;30.73;17.27;;;;;0.60;101770.00;;;;10464462;28;20284;-74
2021/03/08 04:57:25;;;;;;;31.30;17.33;;;;;0.60;101758.00;;;;10505276;28;20616;-74
2021/03/08 05:02:29;;;;;;;34.83;17.77;;;;;0.60;101769.00;;;;10487551;28;20201;-74
2021/03/08 05:07:35;;;;;;;36.30;17.20;;;;;0.60;101778.00;;;;10538372;28;20199;-74
2021/03/08 05:12:40;;;;;;;31.73;17.57;;;;;0.60;101776.00;;;;10504213;28;20216;-74
2021/03/08 05:17:43;;;;;;;35.87;18.63;;;;;0.60;101771.00;;;;10504333;28;20204;-74
2021/03/08 05:22:46;;;;;;;38.80;19.30;;;;;0.60;101777.00;;;;10503727;28;20193;-74
2021/03/08 05:27:48;;;;;;;41.20;20.33;;;;;0.70;101762.00;;;;10520012;28;20264;-74
2021/03/08 05:32:58;;;;;;;35.80;19.07;;;;;0.70;101757.00;;;;10520306;28;20851;-74
2021/03/08 05:38:01;;;;;;;46.03;22.10;;;;;0.60;101775.00;;;;10482109;28;20299;-74
2021/03/08 05:43:06;;;;;;;36.73;19.90;;;;;0.70;101785.00;;;;10537298;28;20209;-74
2021/03/08 05:48:49;;;;;;;40.67;20.83;;;;;0.80;101785.00;;;;10537302;28;20276;-74
2021/03/08 05:54:03;;;;;;;46.03;21.73;;;;;0.80;101787.00;;;;10444998;28;20196;-74
2021/03/08 05:59:06;;;;;;;35.33;21.23;;;;;0.80;101787.00;;;;10512110;28;20210;-74
2021/03/08 06:04:33;;;;;;;39.87;21.17;;;;;0.80;101796.00;;;;10531162;28;21048;-74
2021/03/08 06:10:03;;;;;;;42.17;22.53;;;;;0.80;101785.00;;;;10503404;28;20341;-74
2021/03/08 06:15:08;;;;;;;48.47;21.17;;;;;0.80;101796.00;;;;10538155;28;20247;-74
2021/03/08 06:20:10;;;;;;;44.97;22.33;;;;;0.80;101794.00;;;;10553260;28;20193;-74
2021/03/08 06:25:13;;;;;;;43.87;21.77;;;;;0.90;101794.00;;;;10502846;28;20185;-74
2021/03/08 06:30:16;;;;;;;45.03;22.07;;;;;0.90;101801.00;;;;10519123;28;20190;-74
2021/03/08 06:35:18;;;;;;;43.03;22.90;;;;;1.00;101805.00;;;;10502015;28;20667;-74
2021/03/08 06:40:19;;;;;;;47.37;22.47;;;;;1.10;101808.00;;;;10507628;28;20193;-74
2021/03/08 06:45:24;;;;;;;41.57;21.73;;;;;1.20;101817.00;;;;10509789;28;20219;-74
2021/03/08 06:50:25;;;;;;;50.77;22.20;;;;;1.30;101821.00;;;;10525835;28;20722;-74
2021/03/08 06:55:26;;;;;;;51.20;24.87;;;;;1.50;101823.00;;;;10509550;28;20682;-74
2021/03/08 07:00:31;;;;;;;49.40;23.70;;;;;1.80;101821.00;;;;10540158;28;21111;-74
2021/03/08 07:05:33;;;;;;;48.50;24.23;;;;;2.10;101833.00;;;;10534637;28;20185;-74
2021/03/08 07:10:40;;;;;;;52.00;24.23;;;;;2.40;101844.00;;;;10535889;28;20207;-74
2021/03/08 07:15:59;;;;;;;44.53;24.37;;;;;2.60;101839.00;;;;10525584;28;20563;-74
2021/03/08 07:21:19;;;;;;;45.60;22.67;;;;;2.80;101845.00;;;;10542853;28;20188;-74
2021/03/08 07:26:23;;;;;;;54.37;26.23;;;;;2.90;101847.00;;;;10501363;28;20221;-74
2021/03/08 07:31:42;;;;;;;53.27;27.00;;;;;3.00;101848.00;;;;10491188;28;20189;-74
2021/03/08 07:36:55;;;;;;;46.00;24.67;;;;;3.20;101854.00;;;;10499372;28;20684;-74
2021/03/08 07:42:01;;;;;;;48.27;27.10;;;;;3.60;101855.00;;;;10482502;28;20285;-75
2021/03/08 07:47:16;;;;;;;46.40;24.20;;;;;3.70;101862.00;;;;10491593;28;20410;-75
2021/03/08 07:52:18;;;;;;;50.97;27.57;;;;;4.20;101870.00;;;;10540665;28;20181;-75
2021/03/08 07:57:20;;;;;;;55.23;28.00;;;;;4.50;101859.00;;;;10507522;28;20250;-75
2021/03/08 08:02:22;;;;;;;54.27;30.23;;;;;4.90;101847.00;;;;10550310;28;20608;-75
2021/03/08 08:07:39;;;;;;;49.50;27.43;;;;;5.30;101856.00;;;;10513477;28;20201;-75
2021/03/08 08:12:44;;;;;;;52.23;28.20;;;;;5.70;101849.00;;;;10540476;28;20571;-75
2021/03/08 08:17:47;;;;;;;54.80;30.63;;;;;6.00;101847.00;;;;10505274;28;20317;-76
2021/03/08 08:22:58;;;;;;;54.57;30.43;;;;;6.40;101852.00;;;;10505298;28;20201;-76
2021/03/08 08:28:01;;;;;;;55.07;31.23;;;;;6.90;101859.00;;;;10509147;28;20250;-75
2021/03/08 08:33:04;;;;;;;55.60;30.83;;;;;7.30;101850.00;;;;10521679;28;20198;-75
2021/03/08 08:38:10;;;;;;;48.60;31.03;;;;;7.70;101840.00;;;;10498021;28;20224;-75
2021/03/08 08:43:15;;;;;;;50.90;31.43;;;;;8.10;101842.00;;;;10502946;28;20189;-76
2021/03/08 08:48:17;;;;;;;54.63;31.60;;;;;8.50;101841.00;;;;10499988;28;20185;-76
2021/03/08 08:53:45;;;;;;;50.23;31.17;;;;;8.60;101834.00;;;;10498119;28;20272;-76
2021/03/08 08:58:52;;;;;;;40.40;27.43;;;;;8.70;101835.00;;;;10527070;28;20705;-76
2021/03/08 09:04:06;;;;;;;47.73;28.23;;;;;8.90;101835.00;;;;10537500;28;20212;-76
2021/03/08 09:09:29;;;;;;;43.10;27.30;;;;;8.80;101832.00;;;;10509236;28;20537;-76
2021/03/08 09:14:34;;;;;;;42.40;26.37;;;;;8.90;101822.00;;;;10474395;28;20228;-76
2021/03/08 09:19:37;;;;;;;43.80;27.67;;;;;9.30;101823.00;;;;10551985;28;20200;-76
2021/03/08 09:24:38;;;;;;;50.57;31.93;;;;;9.80;101823.00;;;;10510278;28;20216;-76
2021/03/08 09:29:40;;;;;;;50.50;32.50;;;;;9.80;101819.00;;;;10485699;28;20221;-76
2021/03/08 09:34:42;;;;;;;51.60;33.93;;;;;9.90;101823.00;;;;10478099;28;20283;-76
2021/03/08 09:39:52;;;;;;;50.23;31.73;;;;;10.20;101810.00;;;;10485177;28;20259;-76
2021/03/08 09:44:53;;;;;;;47.13;30.17;;;;;10.40;101809.00;;;;10503983;28;20754;-76
2021/03/08 09:49:55;;;;;;;45.87;29.90;;;;;10.50;101815.00;;;;10479084;28;20188;-77
2021/03/08 09:54:57;;;;;;;49.90;32.33;;;;;10.70;101822.00;;;;10523726;28;20613;-77
2021/03/08 09:59:58;;;;;;;52.40;30.33;;;;;11.10;101818.00;;;;10489250;28;20221;-76
2021/03/08 10:05:02;;;;;;;40.93;27.13;;;;;11.50;101817.00;;;;10527991;28;20185;-77
2021/03/08 10:10:13;;;;;;;49.00;29.80;;;;;11.50;101819.00;;;;10502782;28;20578;-77
2021/03/08 10:15:15;;;;;;;38.27;26.40;;;;;11.70;101809.00;;;;10526638;28;20201;-77
2021/03/08 10:20:16;;;;;;;42.20;26.60;;;;;11.80;101815.00;;;;10510960;28;20591;-77
2021/03/08 10:25:19;;;;;;;37.50;26.27;;;;;11.90;101821.00;;;;10528539;28;20283;-77
2021/03/08 10:30:21;;;;;;;39.77;25.57;;;;;12.10;101811.00;;;;10529632;28;20558;-77
2021/03/08 10:35:25;;;;;;;39.43;25.20;;;;;12.20;101809.00;;;;10514379;28;20255;-76
2021/03/08 10:40:27;;;;;;;36.10;24.33;;;;;12.20;101809.00;;;;10518640;28;20283;-76
2021/03/08 10:45:29;;;;;;;36.83;21.00;;;;;12.30;101812.00;;;;10504347;28;20234;-77
2021/03/08 10:50:52;;;;;;;33.47;22.20;;;;;12.70;101816.00;;;;10537755;28;20196;-77
2021/03/08 10:56:19;;;;;;;31.87;21.87;;;;;13.00;101812.00;;;;10512526;28;20236;-77
2021/03/08 11:01:22;;;;;;;31.87;22.67;;;;;12.90;101805.00;;;;10507877;28;20566;-77
2021/03/08 11:06:24;;;;;;;33.60;22.53;;;;;12.40;101815.00;;;;10497428;28;20193;-77
2021/03/08 11:11:32;;;;;;;30.53;21.97;;;;;12.30;101805.00;;;;10511146;28;20216;-77
2021/03/08 11:16:35;;;;;;;34.13;23.60;;;;;12.50;101795.00;;;;10524446;28;20208;-77
2021/03/08 11:21:37;;;;;;;32.73;20.60;;;;;12.90;101796.00;;;;10565358;28;20196;-77
2021/03/08 11:26:39;;;;;;;34.60;21.77;;;;;13.00;101793.00;;;;10533685;28;20247;-77
2021/03/08 11:31:53;;;;;;;29.63;20.10;;;;;13.40;101790.00;;;;10507747;28;20196;-77
2021/03/08 11:36:54;;;;;;;29.53;18.87;;;;;13.30;101792.00;;;;10518472;28;20208;-77
2021/03/08 11:41:55;;;;;;;28.23;19.80;;;;;13.30;101786.00;;;;10536990;28;20200;-77
2021/03/08 11:46:57;;;;;;;31.97;21.17;;;;;13.00;101779.00;;;;10491256;28;20249;-77
2021/03/08 11:51:59;;;;;;;29.07;20.90;;;;;13.10;101787.00;;;;10525762;28;20192;-77
2021/03/08 11:57:05;;;;;;;30.67;20.67;;;;;13.30;101780.00;;;;10502124;28;20232;-76
2021/03/08 12:02:06;;;;;;;29.73;19.57;;;;;13.60;101774.00;;;;10507689;28;20193;-77
2021/03/08 12:07:08;;;;;;;26.87;19.20;;;;;14.00;101770.00;;;;10509468;28;20233;-76
2021/03/08 12:12:09;;;;;;;30.63;19.43;;;;;14.00;101758.00;;;;10535482;28;20217;-76
2021/03/08 12:17:11;;;;;;;31.23;21.40;;;;;13.50;101754.00;;;;10506262;28;20240;-76
2021/03/08 12:22:21;;;;;;;25.97;17.27;;;;;13.10;101755.00;;;;10506076;28;20184;-76
2021/03/08 12:27:22;;;;;;;32.17;20.77;;;;;13.00;101753.00;;;;10489073;28;20192;-76
2021/03/08 12:32:24;;;;;;;28.07;19.10;;;;;13.20;101739.00;;;;10523439;28;20185;-76
2021/03/08 12:37:26;;;;;;;29.33;18.33;;;;;13.70;101734.00;;;;10546958;28;20214;-76
2021/03/08 12:42:27;;;;;;;28.77;19.13;;;;;13.90;101721.00;;;;10535849;28;20253;-77
2021/03/08 12:47:28;;;;;;;27.67;18.10;;;;;14.20;101720.00;;;;10491487;28;20223;-76
2021/03/08 12:52:31;;;;;;;23.77;16.23;;;;;14.10;101712.00;;;;10521691;28;20189;-76
2021/03/08 12:57:32;;;;;;;27.07;18.67;;;;;14.00;101710.00;;;;10510405;28;20231;-76
2021/03/08 13:02:34;;;;;;;22.40;16.00;;;;;13.90;101707.00;;;;10504076;28;21116;-76
2021/03/08 13:07:35;;;;;;;28.37;17.87;;;;;13.80;101702.00;;;;10521275;28;20196;-76
2021/03/08 13:12:37;;;;;;;27.03;18.17;;;;;14.00;101690.00;;;;10507828;28;20217;-76
2021/03/08 13:17:39;;;;;;;27.73;17.90;;;;;14.30;101692.00;;;;10503728;28;20208;-75
2021/03/08 13:22:41;;;;;;;25.60;18.10;;;;;14.40;101684.00;;;;10525818;28;20712;-75
2021/03/08 13:27:42;;;;;;;29.13;18.77;;;;;14.50;101679.00;;;;10505041;28;20239;-75
2021/03/08 13:32:44;;;;;;;24.33;17.17;;;;;14.20;101668.00;;;;10575893;28;20600;-75
2021/03/08 13:37:46;;;;;;;26.37;17.53;;;;;14.70;101671.00;;;;10537195;28;20219;-75
2021/03/08 13:42:47;;;;;;;21.57;16.67;;;;;15.10;101656.00;;;;10520819;28;20193;-75
2021/03/08 13:47:49;;;;;;;24.90;17.23;;;;;15.30;101657.00;;;;10535831;28;20188;-75
2021/03/08 13:52:51;;;;;;;25.30;17.70;;;;;15.20;101646.00;;;;10548884;28;20200;-75
2021/03/08 13:57:52;;;;;;;28.03;19.00;;;;;15.70;101648.00;;;;10536028;28;20638;-75
2021/03/08 14:02:54;;;;;;;23.57;16.93;;;;;15.60;101638.00;;;;10559512;28;20204;-75
2021/03/08 14:07:55;;;;;;;29.43;18.77;;;;;15.70;101640.00;;;;10519822;28;20200;-75
2021/03/08 14:12:57;;;;;;;28.10;18.27;;;;;16.50;101644.00;;;;10542860;28;20213;-75
2021/03/08 14:17:58;;;;;;;24.97;17.90;;;;;16.60;101640.00;;;;10527416;28;20193;-75
2021/03/08 14:23:03;;;;;;;24.90;18.10;;;;;16.00;101632.00;;;;10509837;28;20199;-75
2021/03/08 14:28:04;;;;;;;26.93;17.80;;;;;17.40;101635.00;;;;10522343;28;20199;-75
2021/03/08 14:33:06;;;;;;;25.63;17.67;;;;;17.50;101622.00;;;;10540237;28;20279;-76
2021/03/08 14:38:22;;;;;;;23.00;17.07;;;;;16.40;101632.00;;;;10545693;28;20211;-75
2021/03/08 14:43:24;;;;;;;28.77;18.33;;;;;15.10;101633.00;;;;10541689;28;20195;-75
2021/03/08 14:48:25;;;;;;;28.60;18.40;;;;;13.50;101621.00;;;;10532297;28;20192;-75
2021/03/08 14:53:27;;;;;;;23.47;15.83;;;;;15.10;101613.00;;;;10556947;28;20227;-75
2021/03/08 14:58:28;;;;;;;30.63;16.37;;;;;15.70;101599.00;;;;10504372;28;20262;-75
2021/03/08 15:03:30;;;;;;;25.13;16.87;;;;;16.80;101599.00;;;;10520903;28;20824;-75
2021/03/08 15:08:31;;;;;;;29.30;16.97;;;;;15.50;101596.00;;;;10535909;28;20249;-75
2021/03/08 15:13:32;;;;;;;30.60;18.33;;;;;15.10;101598.00;;;;10539827;28;20278;-75
2021/03/08 15:18:34;;;;;;;28.70;18.43;;;;;15.50;101578.00;;;;10508220;28;20297;-75
2021/03/08 15:23:35;;;;;;;25.70;17.77;;;;;16.30;101564.00;;;;10525774;28;20192;-75
2021/03/08 15:28:37;;;;;;;24.80;17.50;;;;;16.80;101567.00;;;;10552078;28;20199;-75
2021/03/08 15:33:38;;;;;;;27.17;18.23;;;;;16.20;101584.00;;;;10529464;28;20200;-76
2021/03/08 15:38:41;;;;;;;27.90;20.17;;;;;14.40;101583.00;;;;10547225;28;20209;-76
2021/03/08 15:43:42;;;;;;;25.63;17.93;;;;;13.40;101588.00;;;;10496554;28;20958;-75
2021/03/08 15:48:44;;;;;;;25.97;18.27;;;;;13.00;101584.00;;;;10557589;28;20188;-75
2021/03/08 15:53:46;;;;;;;25.43;16.93;;;;;12.40;101577.00;;;;10516456;28;20215;-75
2021/03/08 15:58:47;;;;;;;25.73;17.27;;;;;12.00;101566.00;;;;10513242;28;20261;-75
2021/03/08 16:03:48;;;;;;;24.73;16.87;;;;;11.70;101557.00;;;;10538099;28;20253;-75
2021/03/08 16:08:49;;;;;;;24.53;17.63;;;;;11.70;101560.00;;;;10539619;28;20253;-75
2021/03/08 16:14:04;;;;;;;26.93;17.17;;;;;11.50;101560.00;;;;10521405;28;20310;-75
2021/03/08 16:19:05;;;;;;;27.27;17.10;;;;;11.20;101562.00;;;;10561471;28;20333;-75
2021/03/08 16:24:07;;;;;;;24.70;16.77;;;;;10.90;101562.00;;;;10529900;28;20184;-75
2021/03/08 16:29:09;;;;;;;26.03;16.47;;;;;10.60;101572.00;;;;10567656;28;20589;-75
2021/03/08 16:34:10;;;;;;;29.50;17.93;;;;;10.30;101564.00;;;;10494871;28;21082;-75
2021/03/08 16:39:11;;;;;;;27.23;16.47;;;;;10.00;101563.00;;;;10514458;28;20967;-75
2021/03/08 16:44:28;;;;;;;22.40;14.73;;;;;9.80;101563.00;;;;10539208;28;20203;-75
2021/03/08 16:49:29;;;;;;;25.23;17.00;;;;;9.60;101558.00;;;;10520995;28;20185;-75
2021/03/08 16:54:31;;;;;;;27.77;17.37;;;;;9.40;101555.00;;;;10543591;28;20181;-75
2021/03/08 16:59:32;;;;;;;26.23;17.40;;;;;9.20;101553.00;;;;10503886;28;20731;-75
2021/03/08 17:04:35;;;;;;;25.47;15.87;;;;;8.90;101553.00;;;;10534093;28;20240;-75
2021/03/08 17:09:38;;;;;;;29.40;16.47;;;;;8.70;101554.00;;;;10536849;28;20184;-75
2021/03/08 17:14:51;;;;;;;28.33;17.43;;;;;8.50;101557.00;;;;10527808;28;20220;-75
2021/03/08 17:19:52;;;;;;;31.43;18.33;;;;;8.20;101556.00;;;;10504852;28;20953;-75
2021/03/08 17:24:53;;;;;;;24.03;14.57;;;;;8.00;101550.00;;;;10477403;28;20220;-75
2021/03/08 17:29:55;;;;;;;28.23;17.30;;;;;7.90;101560.00;;;;10527076;28;20192;-75
2021/03/08 17:34:56;;;;;;;30.67;16.97;;;;;7.80;101554.00;;;;10502112;28;20232;-75
2021/03/08 17:39:57;;;;;;;31.53;18.90;;;;;7.70;101563.00;;;;10498185;28;20280;-75
2021/03/08 17:45:17;;;;;;;27.23;16.80;;;;;7.70;101559.00;;;;10501737;28;20185;-75
2021/03/08 17:50:20;;;;;;;29.07;18.17;;;;;7.60;101552.00;;;;10532640;28;20608;-75
2021/03/08 17:55:22;;;;;;;24.20;15.90;;;;;7.50;101566.00;;;;10502847;28;20283;-75
2021/03/08 18:00:24;;;;;;;22.87;13.83;;;;;7.50;101557.00;;;;10516404;28;20617;-75
2021/03/08 18:05:25;;;;;;;26.93;14.53;;;;;7.40;101563.00;;;;10504648;28;20233;-75
2021/03/08 18:10:26;;;;;;;26.60;15.33;;;;;7.40;101566.00;;;;10501992;28;20189;-75
2021/03/08 18:15:40;;;;;;;30.43;16.30;;;;;7.30;101561.00;;;;10511585;28;20216;-75
2021/03/08 18:20:43;;;;;;;28.67;16.40;;;;;7.20;101573.00;;;;10503052;28;20189;-75
2021/03/08 18:25:45;;;;;;;27.67;16.60;;;;;7.30;101570.00;;;;10521239;28;20188;-75
2021/03/08 18:30:47;;;;;;;26.83;17.73;;;;;7.20;101564.00;;;;10517746;28;20540;-75
2021/03/08 18:35:48;;;;;;;35.37;18.87;;;;;7.20;101571.00;;;;10523849;28;20258;-75
2021/03/08 18:40:50;;;;;;;39.77;20.67;;;;;7.20;101576.00;;;;10514453;28;20188;-75
2021/03/08 18:46:07;;;;;;;30.83;18.27;;;;;7.10;101582.00;;;;10514773;28;20193;-75
2021/03/08 18:51:08;;;;;;;28.10;17.10;;;;;7.00;101581.00;;;;10465970;28;20664;-75
2021/03/08 18:56:10;;;;;;;34.20;16.93;;;;;7.00;101578.00;;;;10466714;28;20261;-76
2021/03/08 19:01:12;;;;;;;37.67;21.17;;;;;6.90;101583.00;;;;10556099;28;20209;-76
2021/03/08 19:06:13;;;;;;;32.77;19.40;;;;;6.80;101581.00;;;;10524462;28;20189;-76
2021/03/08 19:11:15;;;;;;;35.17;20.13;;;;;6.80;101590.00;;;;10487593;28;20623;-76
2021/03/08 19:16:24;;;;;;;37.37;20.93;;;;;6.80;101580.00;;;;10514216;28;20225;-76
2021/03/08 19:21:29;;;;;;;44.27;21.07;;;;;6.80;101586.00;;;;10464865;28;20550;-76
2021/03/08 19:26:30;;;;;;;37.73;21.07;;;;;6.70;101585.00;;;;10511294;28;20242;-76
2021/03/08 19:31:32;;;;;;;32.33;20.83;;;;;6.50;101593.00;;;;10533501;28;20180;-76
2021/03/08 19:36:34;;;;;;;39.27;20.10;;;;;6.40;101582.00;;;;10516759;28;20207;-76
2021/03/08 19:41:36;;;;;;;33.97;19.47;;;;;6.30;101591.00;;;;10535899;28;20242;-76
2021/03/08 19:46:47;;;;;;;33.97;20.33;;;;;6.30;101589.00;;;;10475590;28;20548;-76
2021/03/08 19:51:49;;;;;;;43.17;22.40;;;;;6.20;101595.00;;;;10479846;28;20197;-76
2021/03/08 19:56:51;;;;;;;39.17;23.43;;;;;6.10;101590.00;;;;10490069;28;20232;-76
2021/03/08 20:01:52;;;;;;;38.30;21.60;;;;;6.00;101591.00;;;;10488228;28;20567;-76
2021/03/08 20:06:54;;;;;;;39.23;21.40;;;;;5.90;101605.00;;;;10480437;28;20551;-76
2021/03/08 20:11:55;;;;;;;40.37;21.50;;;;;5.90;101603.00;;;;10492450;28;20225;-75
2021/03/08 20:17:07;;;;;;;39.47;22.57;;;;;5.90;101599.00;;;;10497481;28;20272;-76
2021/03/08 20:22:09;;;;;;;37.57;21.47;;;;;5.80;101602.00;;;;10520849;28;20185;-76
2021/03/08 20:27:10;;;;;;;38.40;22.67;;;;;5.80;101605.00;;;;10525131;28;20251;-76
2021/03/08 20:32:11;;;;;;;36.67;21.20;;;;;5.80;101602.00;;;;10503137;28;20189;-76
2021/03/08 20:37:13;;;;;;;37.03;20.97;;;;;5.80;101598.00;;;;10477688;28;20205;-75
2021/03/08 20:42:14;;;;;;;38.23;22.37;;;;;5.80;101597.00;;;;10506115;28;20231;-75
2021/03/08 20:47:29;;;;;;;39.67;22.10;;;;;5.80;101591.00;;;;10482400;28;20184;-75
2021/03/08 20:52:31;;;;;;;37.60;22.23;;;;;5.80;101595.00;;;;10489159;28;20666;-75
2021/03/08 20:57:33;;;;;;;40.97;22.40;;;;;5.70;101592.00;;;;10505645;28;20304;-75
2021/03/08 21:02:35;;;;;;;36.60;22.40;;;;;5.70;101595.00;;;;10504522;28;20200;-75
2021/03/08 21:07:37;;;;;;;39.47;22.27;;;;;5.70;101591.00;;;;10516952;28;20254;-75
2021/03/08 21:12:39;;;;;;;39.23;21.87;;;;;5.70;101588.00;;;;10487096;28;20209;-76
2021/03/08 21:17:51;;;;;;;41.60;23.80;;;;;5.60;101597.00;;;;10494064;28;20211;-75
2021/03/08 21:22:53;;;;;;;37.03;21.47;;;;;5.60;101591.00;;;;10491454;28;20239;-75
2021/03/08 21:27:55;;;;;;;43.23;23.27;;;;;5.60;101583.00;;;;10477922;28;20724;-75
2021/03/08 21:32:56;;;;;;;41.73;23.13;;;;;5.60;101580.00;;;;10485983;28;20233;-75
2021/03/08 21:37:58;;;;;;;43.17;24.80;;;;;5.60;101581.00;;;;10518903;28;20235;-75
2021/03/08 21:42:59;;;;;;;43.17;23.17;;;;;5.60;101575.00;;;;10485182;28;20230;-75
2021/03/08 21:48:15;;;;;;;38.73;24.03;;;;;5.50;101574.00;;;;10483272;28;20555;-75
2021/03/08 21:53:16;;;;;;;40.10;24.20;;;;;5.50;101573.00;;;;10539406;28;20181;-75
2021/03/08 21:58:18;;;;;;;42.67;24.13;;;;;5.50;101580.00;;;;10485699;28;20745;-75
2021/03/08 22:03:20;;;;;;;47.77;24.07;;;;;5.50;101572.00;;;;10476358;28;20255;-75
2021/03/08 22:08:22;;;;;;;43.53;23.90;;;;;5.50;101574.00;;;;10485155;28;20218;-75
2021/03/08 22:13:23;;;;;;;44.30;25.23;;;;;5.50;101572.00;;;;10499429;28;20310;-75
2021/03/08 22:18:37;;;;;;;46.77;24.67;;;;;5.50;101574.00;;;;10500696;28;20252;-75
2021/03/08 22:23:39;;;;;;;46.50;26.30;;;;;5.40;101569.00;;;;10503374;28;20205;-75
2021/03/08 22:28:41;;;;;;;44.40;25.23;;;;;5.40;101572.00;;;;10466912;28;20282;-75
2021/03/08 22:33:42;;;;;;;46.10;25.87;;;;;5.40;101577.00;;;;10505512;28;20276;-75
2021/03/08 22:38:44;;;;;;;47.50;26.07;;;;;5.30;101567.00;;;;10490268;28;20567;-75
2021/03/08 22:43:46;;;;;;;47.00;25.90;;;;;5.30;101561.00;;;;10480760;28;20209;-75
2021/03/08 22:49:01;;;;;;;46.77;26.77;;;;;5.30;101558.00;;;;10469115;28;20251;-75
2021/03/08 22:54:03;;;;;;;45.47;26.40;;;;;5.20;101556.00;;;;10507600;28;20197;-75
2021/03/08 22:59:04;;;;;;;48.23;28.13;;;;;5.20;101555.00;;;;10501799;28;20233;-75
2021/03/08 23:04:06;;;;;;;47.23;26.90;;;;;5.20;101541.00;;;;10494565;28;20247;-75
2021/03/08 23:09:09;;;;;;;47.27;27.50;;;;;5.10;101547.00;;;;10458065;28;20197;-75
2021/03/08 23:14:10;;;;;;;50.80;28.83;;;;;5.20;101546.00;;;;10491332;28;20216;-75
2021/03/08 23:19:22;;;;;;;47.17;26.40;;;;;5.10;101540.00;;;;10516624;28;20232;-75
2021/03/08 23:24:23;;;;;;;48.97;28.50;;;;;5.10;101551.00;;;;10508444;28;20189;-75
2021/03/08 23:29:25;;;;;;;48.33;27.30;;;;;5.10;101537.00;;;;10525043;28;20238;-75
2021/03/08 23:34:26;;;;;;;59.40;28.10;;;;;5.10;101542.00;;;;10475197;28;20626;-76
2021/03/08 23:39:27;;;;;;;42.37;24.67;;;;;5.10;101541.00;;;;10530054;28;20298;-76
2021/03/08 23:44:29;;;;;;;39.60;23.13;;;;;5.10;101532.00;;;;10567114;28;20196;-76
2021/03/08 23:49:44;;;;;;;40.90;22.63;;;;;5.00;101528.00;;;;10565975;28;20707;-76
2021/03/08 23:54:45;;;;;;;39.17;23.03;;;;;5.00;101521.00;;;;10503747;28;20224;-76
2021/03/08 23:59:47;;;;;;;37.50;22.43;;;;;5.00;101527.00;;;;10524353;28;20232;-75
